Weather at Arkansas Children's Hospital Heliport

Public forecast

Using degrees Fahrenheit for public forecast. Weather courtesy of forecast.io.

Closest aviation weather report (METAR) to Arkansas Children's Hospital Heliport

Closest report is Bill & Hillary Clinton National Airport/Adams Field, 3.5 nm (6.5 km) ESE. Retrieved 2021/06/23 01:53 UTC (32 minutes ago):

KLIT 230153Z 06006KT 10SM CLR 21/10 A3000 RMK AO2 SLP159 T02060100

Closest aviation forecast (TAF) to Arkansas Children's Hospital Heliport

Closest forecast is Bill & Hillary Clinton National Airport/Adams Field, 3.5 nm (6.5 km) ESE. Retrieved 2021-06-23 00:30 UTC (2 hours ago):

TAF KLIT 222328Z 2300/2324 06008KT P6SM SKC FM230200 VRB04KT P6SM SKC FM231600 17009KT P6SM FEW250